createdAt,value
2022-07-30T00:00:55.574Z,2.40
2022-07-30T00:03:24.164Z,1.70
2022-07-30T00:05:56.432Z,1.90
2022-07-30T00:08:48.153Z,2.30
2022-07-30T00:11:27.225Z,1.40
2022-07-30T00:14:30.112Z,1.90
2022-07-30T00:17:13.116Z,1.90
2022-07-30T00:20:13.968Z,2.60
2022-07-30T00:22:54.360Z,2.10
2022-07-30T00:25:37.072Z,1.50
2022-07-30T00:29:10.692Z,3.40
2022-07-30T00:33:00.392Z,3.50
2022-07-30T00:36:49.235Z,1.60
2022-07-30T00:40:38.239Z,1.80
2022-07-30T00:44:27.340Z,1.40
2022-07-30T00:48:16.478Z,2.40
2022-07-30T00:52:05.278Z,2.00
2022-07-30T00:55:54.310Z,2.20
2022-07-30T00:59:43.515Z,2.40
2022-07-30T01:03:32.295Z,1.40
2022-07-30T01:07:21.404Z,1.60
2022-07-30T01:11:13.242Z,2.10
2022-07-30T01:15:02.410Z,2.30
2022-07-30T01:18:51.773Z,1.90
2022-07-30T01:22:49.817Z,1.60
2022-07-30T01:26:51.157Z,2.30
2022-07-30T01:30:40.330Z,0.70
2022-07-30T01:34:29.804Z,1.50
2022-07-30T01:38:18.933Z,2.10
2022-07-30T01:41:03.960Z,1.90
2022-07-30T01:44:23.792Z,1.50
2022-07-30T01:48:13.372Z,1.40
2022-07-30T01:51:18.855Z,1.70
2022-07-30T01:54:24.796Z,1.50
2022-07-30T01:57:56.304Z,1.90
2022-07-30T02:00:58.947Z,1.40
2022-07-30T02:03:30.351Z,2.30
2022-07-30T02:06:35.002Z,1.50
2022-07-30T02:10:07.531Z,1.90
2022-07-30T02:13:02.410Z,1.50
2022-07-30T02:16:00.209Z,1.50
2022-07-30T02:19:06.049Z,1.60
2022-07-30T02:22:33.476Z,1.60
2022-07-30T02:26:10.170Z,1.00
2022-07-30T02:29:36.594Z,1.80
2022-07-30T02:33:26.296Z,1.10
2022-07-30T02:36:59.837Z,1.80
2022-07-30T02:40:50.523Z,1.30
2022-07-30T02:44:40.090Z,1.00
2022-07-30T02:48:44.575Z,1.10
2022-07-30T02:52:33.761Z,1.40
2022-07-30T02:56:26.884Z,1.30
2022-07-30T03:00:17.999Z,1.90
2022-07-30T03:04:07.162Z,1.30
2022-07-30T03:07:59.312Z,1.70
2022-07-30T03:11:48.384Z,1.10
2022-07-30T03:15:39.451Z,1.20
2022-07-30T03:19:29.217Z,1.60
2022-07-30T03:23:25.749Z,1.70
2022-07-30T03:27:20.955Z,1.00
2022-07-30T03:31:11.909Z,1.90
2022-07-30T03:35:16.973Z,0.90
2022-07-30T03:39:11.296Z,1.30
2022-07-30T03:43:01.068Z,1.40
2022-07-30T03:46:56.796Z,1.60
2022-07-30T03:50:46.517Z,1.20
2022-07-30T03:54:35.930Z,1.70
2022-07-30T03:58:23.473Z,1.10
2022-07-30T04:02:23.261Z,1.80
2022-07-30T04:06:11.209Z,1.10
2022-07-30T04:10:01.790Z,1.10
2022-07-30T04:13:51.504Z,1.40
2022-07-30T04:17:45.583Z,1.40
2022-07-30T04:21:42.027Z,1.00
2022-07-30T04:25:37.405Z,2.00
2022-07-30T04:29:26.859Z,1.20
2022-07-30T04:31:58.491Z,1.50
2022-07-30T04:34:55.531Z,1.50
2022-07-30T04:37:59.445Z,1.40
2022-07-30T04:40:33.917Z,1.10
2022-07-30T04:43:15.869Z,1.60
2022-07-30T04:46:01.494Z,0.90
2022-07-30T04:48:38.868Z,1.20
2022-07-30T04:51:17.126Z,0.80
2022-07-30T04:54:30.275Z,1.10
2022-07-30T04:58:10.380Z,1.40
2022-07-30T05:01:24.157Z,1.20
2022-07-30T05:04:15.299Z,1.90
2022-07-30T05:08:04.209Z,1.70
2022-07-30T05:11:04.060Z,1.60
2022-07-30T05:13:48.446Z,1.70
2022-07-30T05:16:29.719Z,1.50
2022-07-30T05:19:21.077Z,1.60
2022-07-30T05:21:55.639Z,1.80
2022-07-30T05:25:26.196Z,2.00
2022-07-30T05:29:00.411Z,3.20
2022-07-30T05:32:02.489Z,1.30
2022-07-30T05:34:50.105Z,2.60
2022-07-30T05:37:29.766Z,1.50
2022-07-30T05:40:34.587Z,1.60
2022-07-30T05:43:25.447Z,1.20
2022-07-30T05:46:29.363Z,1.40
2022-07-30T05:48:58.154Z,1.20
2022-07-30T05:51:47.974Z,1.40
2022-07-30T05:59:50.961Z,1.30
2022-07-30T06:03:43.731Z,2.40
2022-07-30T06:06:40.786Z,1.60
2022-07-30T06:10:16.303Z,0.90
2022-07-30T06:13:55.942Z,1.40
2022-07-30T06:17:44.902Z,1.50
2022-07-30T06:22:05.808Z,1.60
2022-07-30T06:25:11.312Z,1.80
2022-07-30T06:28:38.481Z,1.70
2022-07-30T06:32:28.073Z,1.40
2022-07-30T06:36:01.371Z,1.40
2022-07-30T06:39:15.541Z,1.70
2022-07-30T06:43:35.494Z,1.10
2022-07-30T06:47:29.024Z,1.30
2022-07-30T06:50:56.677Z,0.90
2022-07-30T06:54:27.125Z,1.00
2022-07-30T06:57:28.629Z,1.60
2022-07-30T07:01:10.990Z,1.20
2022-07-30T07:04:53.030Z,1.80
2022-07-30T07:08:09.161Z,1.70
2022-07-30T07:11:33.373Z,0.90
2022-07-30T07:14:26.977Z,1.40
2022-07-30T07:17:46.614Z,1.30
2022-07-30T07:20:52.424Z,1.30
2022-07-30T07:23:48.673Z,1.10
2022-07-30T07:27:38.950Z,1.00
2022-07-30T07:31:06.980Z,1.70
2022-07-30T07:34:49.421Z,1.10
2022-07-30T07:37:53.431Z,1.10
2022-07-30T07:41:28.351Z,1.40
2022-07-30T07:44:52.912Z,1.30
2022-07-30T07:48:46.603Z,1.40
2022-07-30T07:52:55.951Z,1.80
2022-07-30T07:56:29.312Z,2.10
2022-07-30T07:59:52.900Z,1.60
2022-07-30T08:02:38.870Z,1.60
2022-07-30T08:05:58.057Z,1.00
2022-07-30T08:09:03.974Z,2.60
2022-07-30T08:12:20.517Z,1.50
2022-07-30T08:16:00.488Z,1.60
2022-07-30T08:19:00.616Z,1.80
2022-07-30T08:22:00.146Z,3.10
2022-07-30T08:25:22.146Z,1.50
2022-07-30T08:28:54.564Z,1.30
2022-07-30T08:32:33.542Z,1.90
2022-07-30T08:36:25.763Z,2.10
2022-07-30T08:39:27.706Z,1.30
2022-07-30T08:42:48.050Z,1.80
2022-07-30T08:45:34.679Z,2.20
2022-07-30T08:49:15.764Z,1.90
2022-07-30T08:53:09.878Z,2.30
2022-07-30T08:56:35.610Z,1.70
2022-07-30T09:00:01.181Z,2.00
2022-07-30T09:02:39.457Z,1.80
2022-07-30T09:05:24.983Z,1.40
2022-07-30T09:08:09.029Z,2.30
2022-07-30T09:11:14.608Z,2.40
2022-07-30T09:14:44.113Z,2.80
2022-07-30T09:17:13.098Z,2.70
2022-07-30T09:20:09.532Z,2.50
2022-07-30T09:23:07.076Z,2.20
2022-07-30T09:26:19.925Z,2.50
2022-07-30T09:29:52.220Z,2.40
2022-07-30T09:33:51.767Z,2.40
2022-07-30T09:37:37.908Z,2.50
2022-07-30T09:41:41.469Z,2.40
2022-07-30T09:45:19.389Z,2.30
2022-07-30T09:49:09.429Z,2.80
2022-07-30T09:53:00.149Z,2.20
2022-07-30T09:57:05.098Z,1.80
2022-07-30T10:00:58.584Z,3.00
2022-07-30T10:04:49.527Z,2.70
2022-07-30T10:08:38.426Z,3.00
2022-07-30T10:12:30.200Z,4.50
2022-07-30T10:16:21.700Z,3.10
2022-07-30T10:20:13.202Z,4.10
2022-07-30T10:24:12.608Z,3.70
2022-07-30T10:28:11.309Z,3.50
2022-07-30T10:32:03.882Z,3.20
2022-07-30T10:35:54.301Z,3.30
2022-07-30T10:39:44.657Z,3.80
2022-07-30T10:43:55.776Z,3.30
2022-07-30T10:47:44.928Z,2.60
2022-07-30T10:51:38.769Z,2.80
2022-07-30T10:55:37.375Z,3.40
2022-07-30T11:02:48.578Z,2.90
2022-07-30T11:06:24.104Z,4.00
2022-07-30T11:10:22.908Z,3.30
2022-07-30T11:14:09.981Z,3.50
2022-07-30T11:18:01.485Z,3.40
2022-07-30T11:21:31.368Z,3.50
2022-07-30T11:25:25.685Z,3.30
2022-07-30T11:29:50.930Z,3.80
2022-07-30T11:33:18.642Z,4.00
2022-07-30T11:37:01.678Z,3.70
2022-07-30T11:41:08.276Z,2.80
2022-07-30T11:44:20.249Z,3.70
2022-07-30T11:47:51.181Z,4.10
2022-07-30T11:50:55.094Z,6.70
2022-07-30T11:53:31.886Z,3.70
2022-07-30T11:56:01.521Z,3.50
2022-07-30T11:59:02.227Z,2.60
2022-07-30T12:01:40.073Z,5.60
2022-07-30T12:04:11.244Z,8.20
2022-07-30T12:07:05.618Z,3.70
2022-07-30T12:09:45.620Z,3.80
2022-07-30T12:12:30.898Z,8.70
2022-07-30T12:15:17.630Z,3.10
2022-07-30T12:18:11.094Z,3.50
2022-07-30T12:21:18.377Z,3.20
2022-07-30T12:24:00.886Z,3.40
2022-07-30T12:27:07.811Z,2.60
2022-07-30T12:29:53.098Z,2.70
2022-07-30T12:32:36.230Z,2.60
2022-07-30T12:35:07.337Z,2.70
2022-07-30T12:37:40.189Z,2.10
2022-07-30T12:40:22.196Z,1.90
2022-07-30T12:43:13.980Z,2.10
2022-07-30T12:46:06.030Z,2.60
2022-07-30T12:48:47.996Z,2.50
2022-07-30T12:51:21.649Z,2.10
2022-07-30T12:53:53.136Z,2.10
2022-07-30T12:57:22.156Z,2.60
2022-07-30T13:00:17.587Z,2.00
2022-07-30T13:03:29.720Z,3.30
2022-07-30T13:06:53.929Z,2.40
2022-07-30T13:09:22.077Z,2.00
2022-07-30T13:12:12.121Z,1.10
2022-07-30T13:14:42.127Z,1.80
2022-07-30T13:17:37.679Z,1.80
2022-07-30T13:20:46.300Z,2.80
2022-07-30T13:23:43.182Z,2.70
2022-07-30T13:26:51.992Z,2.20
2022-07-30T13:30:40.370Z,1.80
2022-07-30T13:33:53.320Z,2.50
2022-07-30T13:37:07.991Z,3.30
2022-07-30T13:40:16.678Z,2.60
2022-07-30T13:43:39.876Z,2.90
2022-07-30T13:47:09.806Z,2.40
2022-07-30T13:49:51.433Z,2.10
2022-07-30T13:52:42.941Z,2.30
2022-07-30T13:56:01.885Z,1.50
2022-07-30T13:59:34.454Z,1.80
2022-07-30T14:02:26.222Z,2.20
2022-07-30T14:05:08.223Z,2.80
2022-07-30T14:08:09.400Z,1.50
2022-07-30T14:10:58.410Z,2.40
2022-07-30T14:13:58.011Z,1.50
2022-07-30T14:16:57.181Z,1.90
2022-07-30T14:20:05.243Z,1.30
2022-07-30T14:22:58.392Z,2.00
2022-07-30T14:26:09.555Z,2.00
2022-07-30T14:29:57.556Z,2.40
2022-07-30T14:33:39.878Z,1.90
2022-07-30T14:36:13.705Z,2.90
2022-07-30T14:39:33.811Z,1.20
2022-07-30T14:42:56.786Z,2.80
2022-07-30T14:46:02.431Z,2.70
2022-07-30T14:49:18.036Z,2.30
2022-07-30T14:52:45.735Z,2.40
2022-07-30T14:55:35.878Z,1.60
2022-07-30T14:58:34.960Z,3.50
2022-07-30T15:01:16.272Z,1.70
2022-07-30T15:03:45.187Z,1.80
2022-07-30T15:06:28.235Z,2.20
2022-07-30T15:09:27.996Z,2.00
2022-07-30T15:12:23.735Z,2.20
2022-07-30T15:15:18.501Z,2.00
2022-07-30T15:18:12.931Z,1.50
2022-07-30T15:21:40.367Z,2.80
2022-07-30T15:24:48.715Z,1.30
2022-07-30T15:28:03.856Z,1.50
2022-07-30T15:31:31.380Z,2.00
2022-07-30T15:34:35.139Z,1.60
2022-07-30T15:37:18.384Z,1.70
2022-07-30T15:40:45.551Z,1.90
2022-07-30T15:44:17.757Z,1.80
2022-07-30T15:47:48.157Z,2.10
2022-07-30T15:51:29.694Z,2.20
2022-07-30T15:54:36.959Z,1.80
2022-07-30T15:58:25.286Z,2.30
2022-07-30T16:02:12.620Z,1.80
2022-07-30T16:04:44.519Z,1.70
2022-07-30T16:08:21.803Z,1.90
2022-07-30T16:12:02.731Z,2.50
2022-07-30T16:15:08.576Z,1.90
2022-07-30T16:18:15.922Z,1.70
2022-07-30T16:20:54.214Z,1.60
2022-07-30T16:23:55.411Z,1.80
2022-07-30T16:27:05.849Z,2.00
2022-07-30T16:30:03.057Z,2.00
2022-07-30T16:33:11.443Z,2.30
2022-07-30T16:36:32.878Z,2.40
2022-07-30T16:39:40.238Z,1.80
2022-07-30T16:42:31.045Z,2.40
2022-07-30T16:46:09.609Z,2.50
2022-07-30T16:49:38.547Z,2.00
2022-07-30T16:52:11.456Z,3.00
2022-07-30T16:55:19.196Z,2.10
2022-07-30T16:58:08.948Z,2.30
2022-07-30T17:01:01.203Z,2.50
2022-07-30T17:04:30.058Z,2.70
2022-07-30T17:08:06.143Z,2.30
2022-07-30T17:11:51.988Z,2.20
2022-07-30T17:14:40.452Z,3.10
2022-07-30T17:17:28.835Z,2.50
2022-07-30T17:20:29.262Z,1.70
2022-07-30T17:23:38.855Z,2.40
2022-07-30T17:26:34.938Z,2.30
2022-07-30T17:29:49.929Z,2.70
2022-07-30T17:32:35.459Z,3.40
2022-07-30T17:35:45.291Z,3.30
2022-07-30T17:38:19.957Z,3.60
2022-07-30T17:41:10.549Z,2.50
2022-07-30T17:44:03.123Z,2.90
2022-07-30T17:46:53.770Z,3.80
2022-07-30T17:49:56.713Z,4.00
2022-07-30T17:52:27.369Z,3.30
2022-07-30T17:55:15.578Z,3.40
2022-07-30T17:57:51.271Z,3.10
2022-07-30T18:00:25.863Z,4.50
2022-07-30T18:02:56.033Z,4.60
2022-07-30T18:05:30.179Z,3.90
2022-07-30T18:08:52.053Z,4.00
2022-07-30T18:11:19.509Z,3.90
2022-07-30T18:13:53.576Z,4.00
2022-07-30T18:16:25.765Z,3.30
2022-07-30T18:18:56.667Z,3.30
2022-07-30T18:21:25.559Z,2.90
2022-07-30T18:24:07.416Z,3.30
2022-07-30T18:26:42.661Z,3.60
2022-07-30T18:29:14.028Z,3.40
2022-07-30T18:31:43.576Z,3.50
2022-07-30T18:34:15.662Z,3.60
2022-07-30T18:36:55.004Z,3.70
2022-07-30T18:39:45.339Z,3.80
2022-07-30T18:42:15.817Z,4.10
2022-07-30T18:44:48.115Z,4.60
2022-07-30T18:47:27.465Z,4.10
2022-07-30T18:50:13.711Z,4.50
2022-07-30T18:52:48.087Z,4.70
2022-07-30T18:55:20.727Z,5.10
2022-07-30T18:57:52.501Z,4.30
2022-07-30T19:01:00.596Z,4.30
2022-07-30T19:03:33.321Z,6.60
2022-07-30T19:06:03.271Z,4.20
2022-07-30T19:08:41.120Z,4.00
2022-07-30T19:11:14.647Z,4.10
2022-07-30T19:13:42.678Z,4.00
2022-07-30T19:16:16.131Z,4.80
2022-07-30T19:19:05.630Z,4.80
2022-07-30T19:22:04.190Z,4.20
2022-07-30T19:25:15.698Z,4.70
2022-07-30T19:28:17.247Z,5.00
2022-07-30T19:31:07.262Z,4.30
2022-07-30T19:33:54.256Z,4.60
2022-07-30T19:36:44.144Z,4.80
2022-07-30T19:39:35.021Z,4.20
2022-07-30T19:42:13.903Z,4.80
2022-07-30T19:44:46.223Z,4.80
2022-07-30T19:47:43.388Z,4.20
2022-07-30T19:50:59.482Z,5.90
2022-07-30T19:54:10.524Z,4.80
2022-07-30T19:57:53.475Z,4.60
2022-07-30T20:01:08.310Z,4.40
2022-07-30T20:04:30.064Z,4.50
2022-07-30T20:07:58.358Z,4.40
2022-07-30T20:10:57.544Z,4.60
2022-07-30T20:14:13.121Z,4.60
2022-07-30T20:20:29.084Z,4.00
2022-07-30T20:23:37.523Z,4.80
2022-07-30T20:27:36.204Z,4.90
2022-07-30T20:31:04.202Z,5.00
2022-07-30T20:34:34.164Z,3.90
2022-07-30T20:38:21.773Z,4.70
2022-07-30T20:41:35.770Z,4.20
2022-07-30T20:45:24.999Z,4.10
2022-07-30T20:48:42.185Z,4.50
2022-07-30T20:52:24.974Z,4.50
2022-07-30T20:56:14.915Z,4.90
2022-07-30T20:59:37.022Z,4.00
2022-07-30T21:03:21.745Z,4.70
2022-07-30T21:06:34.850Z,4.20
2022-07-30T21:10:12.576Z,3.60
2022-07-30T21:14:03.042Z,5.10
2022-07-30T21:17:51.524Z,5.20
2022-07-30T21:21:47.910Z,4.80
2022-07-30T21:25:36.206Z,4.70
2022-07-30T21:29:44.648Z,4.80
2022-07-30T21:32:37.030Z,4.40
2022-07-30T21:36:05.108Z,4.70
2022-07-30T21:39:59.354Z,4.20
2022-07-30T21:42:48.172Z,4.40
2022-07-30T21:46:27.119Z,4.80
2022-07-30T21:49:14.725Z,4.40
2022-07-30T21:51:44.861Z,4.20
2022-07-30T21:54:48.207Z,4.50
2022-07-30T21:57:45.945Z,4.60
2022-07-30T22:00:25.805Z,4.40
2022-07-30T22:04:04.068Z,4.30
2022-07-30T22:07:15.756Z,4.50
2022-07-30T22:10:41.777Z,4.80
2022-07-30T22:13:53.679Z,4.80
2022-07-30T22:17:36.807Z,4.20
2022-07-30T22:21:05.983Z,4.10
2022-07-30T22:24:07.773Z,4.50
2022-07-30T22:27:55.929Z,4.50
2022-07-30T22:31:14.265Z,4.40
2022-07-30T22:34:11.287Z,5.10
2022-07-30T22:37:24.620Z,5.30
2022-07-30T22:40:44.871Z,4.70
2022-07-30T22:43:23.014Z,5.10
2022-07-30T22:47:00.816Z,5.40
2022-07-30T22:49:55.206Z,5.40
2022-07-30T22:54:10.543Z,5.40
2022-07-30T22:57:30.034Z,5.20
2022-07-30T23:00:28.054Z,5.60
2022-07-30T23:04:16.252Z,6.00
2022-07-30T23:07:49.029Z,5.90
2022-07-30T23:10:39.352Z,5.10
2022-07-30T23:12:17.113Z,4.50
2022-07-30T23:14:07.715Z,5.70
2022-07-30T23:17:30.287Z,5.20
2022-07-30T23:20:27.126Z,5.70
2022-07-30T23:23:56.264Z,4.70
2022-07-30T23:27:05.477Z,5.50
2022-07-30T23:30:02.755Z,5.50
2022-07-30T23:33:05.837Z,5.40
2022-07-30T23:36:27.816Z,5.30
2022-07-30T23:39:04.394Z,6.30
2022-07-30T23:42:14.767Z,6.30
2022-07-30T23:45:53.861Z,5.50
2022-07-30T23:48:45.908Z,6.70
2022-07-30T23:51:41.532Z,6.10
2022-07-30T23:54:39.644Z,5.70
2022-07-30T23:57:57.966Z,5.40
